Latest Coastal Weather Observations for Low Head

IDV60701

Issued at 6:02 pm EDT Saturday 13 February 2016 (issued every 10 minutes, with the page automatically refreshed every 10 minutes)

About coastal observations | Map of coastal stations | Coastal observations for VIC | Marine services | Other Formats
Station Details ID: 091293 Name: LOW HEAD Lat: -41.05 Lon: 146.79 Height: 3.0 m
Data from the previous 72 hours. | See also: Recent months at Low Head
Date/Time
EDT
Temp

°C
Wind Pressure Rain
since 9am
mm
Weather Cloud Vis
km
Sea
Height
m
Swell
Dir
 
Speed
knots
Gust
knots
hPa Trend Height
m
Period
s
Dir
13/06:00pm 21.0 WNW 29 35 1002.7 - 0.0 - - - - - - -
13/05:30pm 21.2 NW 27 33 1002.8 - 0.0 - - - - - - -
13/05:00pm 21.5 NW 24 30 1003.1 - 0.0 - - - - - - -
13/04:30pm 21.4 NW 22 25 1003.4 - 0.0 - - - - - - -
13/04:00pm 21.8 NW 20 23 1003.8 - 0.0 - - - - - - -
13/03:30pm 22.0 NW 21 24 1004.0 - 0.0 - - - - - - -
13/03:00pm 22.2 NW 17 21 1004.2 - 0.0 - - - - - - -
13/02:30pm 22.2 NW 16 18 1004.4 - 0.0 - - - - - - -
13/02:00pm 22.7 NNW 14 16 1004.5 - 0.0 - - - - - - -
13/01:30pm 22.5 NNW 12 15 1004.8 - 0.0 - - - - - - -
13/01:00pm 23.2 NW 11 13 1005.2 - 0.0 - - - - - - -
13/12:30pm 22.9 NW 11 13 1005.5 - 0.0 - - - - - - -
13/12:00pm 22.5 NW 9 11 1005.6 - 0.0 - - - - - - -
13/11:30am 21.9 NW 9 11 1005.9 - 0.0 - - - - - - -
13/11:00am 21.5 NNW 8 10 1006.0 - 0.0 - - - - - - -
13/10:30am 21.5 NNW 8 10 1006.4 - 0.0 - - - - - - -
13/10:00am 20.9 N 7 8 1006.5 - 0.0 - - - - - - -
13/09:30am 20.5 N 7 9 1006.6 - 0.0 - - - - - - -
13/09:00am 20.0 N 9 10 1006.9 - 0.0 - - - - - - -
13/08:30am 19.8 NW 10 11 1007.8 - 0.0 - - - - - - -
13/08:00am 20.0 NNW 9 10 1007.4 - 0.0 - - - - - - -
13/07:30am 20.0 NNE 10 13 1006.3 - 0.0 - - - - - - -
13/07:00am 19.7 NW 8 9 1007.6 - 0.0 - - - - - - -
13/06:30am 19.7 NW 9 11 1007.6 - 0.0 - - - - - - -
13/06:00am 19.6 NW 7 8 1007.5 - 0.0 - - - - - - -
13/05:30am 19.6 NW 7 8 1007.4 - 0.0 - - - - - - -
13/05:00am 19.8 N 10 11 1007.4 - 0.0 - - - - - - -
13/04:30am 20.0 NNW 9 11 1007.8 - 0.0 - - - - - - -
13/04:00am 19.8 N 11 13 1007.9 - 0.0 - - - - - - -
13/03:30am 19.9 N 10 13 1008.4 - 0.0 - - - - - - -
13/03:00am 19.6 NNW 7 8 1008.9 - 0.0 - - - - - - -
13/02:30am 19.7 NNW 7 9 1009.3 - 0.0 - - - - - - -
13/02:00am 19.6 NNW 8 10 1009.5 - 0.0 - - - - - - -
13/01:30am 19.9 N 7 10 1009.9 - 0.0 - - - - - - -
13/01:00am 19.5 N 7 9 1010.4 - 0.0 - - - - - - -
13/12:30am 19.4 N 6 7 1010.5 - 0.0 - - - - - - -
13/12:00am 19.4 N 6 7 1010.7 - 0.0 - - - - - - -
 
Date/Time
EDT
Temp

°C
Wind Pressure Rain
since 9am
mm
Weather Cloud Vis
km
Sea
Height
m
Swell
Dir
 
Speed
knots
Gust
knots
hPa Trend Height
m
Period
s
Dir
12/11:30pm 19.4 N 6 7 1011.1 - 0.0 - - - - - - -
12/11:00pm 18.7 ENE 3 5 1011.4 - 0.0 - - - - - - -
12/10:30pm 19.6 N 5 7 1011.7 - 0.0 - - - - - - -
12/10:00pm 19.8 N 5 6 1012.2 - 0.0 - - - - - - -
12/09:30pm 19.8 NW 5 6 1012.4 - 0.0 - - - - - - -
12/09:00pm 19.8 NNW 4 5 1012.4 - 0.0 - - - - - - -
12/08:30pm 19.8 NW 4 5 1012.5 - 0.0 - - - - - - -
12/08:00pm 20.2 NW 5 6 1012.5 - 0.0 - - - - - - -
12/07:30pm 20.6 NNW 5 6 1012.8 - 0.0 - - - - - - -
12/07:00pm 20.9 NW 6 8 1013.0 - 0.0 - - - - - - -
12/06:30pm 21.5 NW 7 9 1013.3 - 0.0 - - - - - - -
12/06:00pm 22.0 NW 7 9 1013.4 - 0.0 - - - - - - -
12/05:30pm 22.3 NW 8 10 1013.5 - 0.0 - - - - - - -
12/05:00pm 22.1 NNW 8 10 1013.7 - 0.0 - - - - - - -
12/04:30pm 22.3 NNW 8 9 1013.6 - 0.0 - - - - - - -
12/04:00pm 22.0 N 7 9 1013.9 - 0.0 - - - - - - -
12/03:30pm 21.5 N 8 10 1014.2 - 0.0 - - - - - - -
12/03:00pm 22.5 N 9 10 1014.7 - 0.0 - - - - - - -
12/02:30pm 22.4 N 9 11 1015.0 - 0.0 - - - - - - -
12/02:00pm 21.2 N 10 11 1015.2 - 0.0 - - - - - - -
12/01:30pm 21.0 NNE 9 11 1015.3 - 0.0 - - - - - - -
12/01:00pm 21.3 NNE 10 11 1015.7 - 0.0 - - - - - - -
12/12:30pm 21.1 NNE 10 11 1015.9 - 0.0 - - - - - - -
12/12:00pm 21.2 NNE 11 12 1016.2 - 0.0 - - - - - - -
12/11:30am 21.0 NNE 9 10 1016.6 - 0.0 - - - - - - -
12/11:00am 20.8 SSW 3 5 1017.0 - 0.0 - - - - - - -
12/10:30am 20.3 S 7 10 1017.0 - 0.0 - - - - - - -
12/10:00am 19.5 S 8 9 1017.2 - 0.0 - - - - - - -
12/09:30am 18.6 SSE 9 11 1017.3 - 0.0 - - - - - - -
12/09:00am 18.1 S 9 11 1017.2 - 6.8 - - - - - - -
12/08:30am 17.2 SSE 9 11 1017.0 - 6.8 - - - - - - -
12/08:00am 17.0 SSE 9 12 1016.7 - 6.8 - - - - - - -
12/07:30am 16.5 SSE 9 10 1016.5 - 6.8 - - - - - - -
12/07:00am 16.5 SSE 9 11 1016.3 - 6.8 - - - - - - -
12/06:30am 16.3 SSE 8 9 1016.3 - 6.8 - - - - - - -
12/06:00am 16.4 SSE 9 11 1016.4 - 6.8 - - - - - - -
12/05:30am 16.6 SSE 9 12 1016.2 - 6.8 - - - - - - -
12/05:00am 17.0 SSE 7 9 1016.3 - 6.8 - - - - - - -
12/04:30am 16.9 SSE 7 9 1016.1 - 6.2 - - - - - - -
12/04:00am 17.1 SSE 5 7 1016.5 - 6.2 - - - - - - -
12/03:30am 17.0 SSE 4 7 1016.5 - 5.8 - - - - - - -
12/03:00am 17.9 SSW 5 7 1016.7 - 0.6 Rain - - - - - -
12/02:30am 18.0 SSW 1 4 1016.8 - 0.0 - - - - - - -
12/02:00am 17.6 ESE 3 6 1016.8 - 0.0 - - - - - - -
12/01:30am 17.8 ESE 6 9 1017.0 - 0.0 - - - - - - -
12/01:00am 17.4 SE 5 7 1017.3 - 0.0 - - - - - - -
12/12:30am 17.9 E 6 8 1017.3 - 0.0 - - - - - - -
12/12:00am 17.3 ESE 7 9 1017.4 - 0.0 - - - - - - -
 
Date/Time
EDT
Temp

°C
Wind Pressure Rain
since 9am
mm
Weather Cloud Vis
km
Sea
Height
m
Swell
Dir
 
Speed
knots
Gust
knots
hPa Trend Height
m
Period
s
Dir
11/11:30pm 18.7 E 7 9 1017.4 - 0.0 - - - - - - -
11/11:00pm 19.3 NE 9 11 1017.5 - 0.0 - - - - - - -
11/10:30pm 19.3 NE 10 11 1017.4 - 0.0 - - - - - - -
11/10:00pm 19.4 NNE 8 10 1017.2 - 0.0 - - - - - - -
11/09:30pm 19.5 NNE 8 11 1017.0 - 0.0 - - - - - - -
11/09:00pm 19.3 NNE 10 11 1016.7 - 0.0 - - - - - - -
11/08:30pm 19.3 NNE 8 10 1016.4 - 0.0 - - - - - - -
11/08:00pm 19.7 N 8 10 1016.2 - 0.0 - - - - - - -
11/07:30pm 19.9 NNE 9 11 1015.6 - 0.0 - - - - - - -
11/07:00pm 20.0 NNE 10 12 1015.4 - 0.0 - - - - - - -
11/06:30pm 19.9 N 12 13 1015.1 - 0.0 - - - - - - -
11/06:00pm 20.0 N 12 14 1015.1 - 0.0 - - - - - - -
11/05:30pm 20.5 N 10 12 1015.2 - 0.0 - - - - - - -
11/05:00pm 20.7 N 11 13 1015.2 - 0.0 - - - - - - -
11/04:30pm 20.3 NNE 10 12 1015.2 - 0.0 - - - - - - -
11/04:00pm 19.9 NNE 10 13 1015.5 - 0.0 - - - - - - -
11/03:30pm 20.5 N 11 13 1015.6 - 0.0 - - - - - - -
11/03:00pm 20.0 N 11 13 1015.7 - 0.0 - - - - - - -
11/02:30pm 19.9 N 12 14 1015.8 - 0.0 - - - - - - -
11/02:00pm 19.7 N 13 15 1015.7 - 0.0 - - - - - - -
11/01:30pm 19.9 N 12 14 1015.4 - 0.0 - - - - - - -
11/01:00pm 20.3 NNE 12 13 1015.3 - 0.0 - - - - - - -
11/12:30pm 20.8 NNE 11 13 1015.4 - 0.0 - - - - - - -
11/12:00pm 21.1 NNE 10 12 1015.6 - 0.0 - - - - - - -
11/11:30am 20.8 NNE 9 11 1015.7 - 0.0 - - - - - - -
11/11:00am 21.4 NE 6 8 1015.7 - 0.0 - - - - - - -
11/10:30am 21.4 S 11 15 1015.4 - 0.0 - - - - - - -
11/10:00am 21.1 SSE 12 15 1015.4 - 0.0 - - - - - - -
11/09:30am 20.1 S 12 15 1015.3 - 0.0 - - - - - - -
11/09:00am 18.8 S 11 14 1015.2 - 0.0 - - - - - - -
11/08:30am 17.8 S 9 12 1015.0 - 0.0 - - - - - - -
11/08:00am 17.0 S 9 10 1014.8 - 0.0 - - - - - - -
11/07:30am 17.2 S 5 7 1014.7 - 0.0 - - - - - - -
11/07:00am 16.9 S 6 7 1014.4 - 0.0 - - - - - - -
11/06:30am 16.5 S 4 5 1014.1 - 0.0 - - - - - - -
11/06:00am 17.7 SW 5 7 1013.7 - 0.0 - - - - - - -
11/05:30am 17.9 WSW 9 11 1013.4 - 0.0 - - - - - - -
11/05:00am 18.3 SW 10 12 1013.1 - 0.0 - - - - - - -
11/04:30am 18.5 WSW 8 10 1012.8 - 0.0 - - - - - - -
11/04:00am 19.3 WSW 11 13 1012.6 - 0.0 - - - - - - -
11/03:30am 19.5 WSW 12 13 1012.7 - 0.0 - - - - - - -
11/03:00am 19.6 WSW 12 13 1012.6 - 0.0 - - - - - - -
11/02:30am 19.8 WSW 10 12 1012.6 - 0.0 - - - - - - -
11/02:00am 19.9 SW 11 13 1012.6 - 0.0 - - - - - - -
11/01:30am 19.7 SW 12 14 1012.6 - 0.0 - - - - - - -
11/01:00am 19.6 SW 12 13 1012.4 - 0.0 - - - - - - -
11/12:30am 19.8 SW 11 13 1012.1 - 0.0 - - - - - - -
11/12:00am 19.8 SW 10 11 1011.8 - 0.0 - - - - - - -
 
Date/Time
EDT
Temp

°C
Wind Pressure Rain
since 9am
mm
Weather Cloud Vis
km
Sea
Height
m
Swell
Dir
 
Speed
knots
Gust
knots
hPa Trend Height
m
Period
s
Dir
10/11:30pm 20.0 W 13 15 1011.5 - 0.0 - - - - - - -
10/11:00pm 20.3 WSW 15 18 1011.5 - 0.0 - - - - - - -
10/10:30pm 20.2 W 20 24 1011.5 - 0.0 - - - - - - -
10/10:00pm 20.5 W 22 25 1011.4 - 0.0 - - - - - - -
10/09:30pm 20.9 W 21 24 1011.2 - 0.0 - - - - - - -
10/09:00pm 21.4 W 21 25 1010.9 - 0.0 - - - - - - -
10/08:30pm 21.8 W 21 25 1010.6 - 0.0 - - - - - - -
10/08:00pm 21.9 W 22 25 1010.2 - 0.0 - - - - - - -
10/07:30pm 22.2 WNW 18 22 1009.9 - 0.0 - - - - - - -
10/07:00pm 22.0 NW 20 23 1009.8 - 0.0 - - - - - - -
10/06:30pm 21.7 NW 21 25 1009.8 - 0.0 - - - - - - -

Other Formats:

Comma delimited format used in spreadsheet applications
http://www.bom.gov.au/fwo/IDV60701/IDV60701.95964.axf

JavaScript Object Notation format (JSON) in row-major order
http://www.bom.gov.au/fwo/IDV60701/IDV60701.95964.json